Time;durP1;ratioP1;P1;durP2;ratioP2;P2;SDS_P1;SDS_P2;PMS_P1;PMS_P2;Temp;Humidity;BMP_temperature;BMP_pressure;BME280_temperature;BME280_humidity;BME280_pressure;Samples;Min_cycle;Max_cycle;Signal;HPM_P1;HPM_P2
2021/10/04 00:00:42;;;;;;;0.20;0.20;;;;;;;27.21;35.23;96554.34;5025023;28;20033;-38
2021/10/04 00:03:07;;;;;;;0.10;0.10;;;;;;;27.21;35.33;96551.69;5034598;28;20032;-34
2021/10/04 00:05:33;;;;;;;0.10;0.10;;;;;;;27.21;35.34;96554.34;5028980;28;20025;-30
2021/10/04 00:07:59;;;;;;;0.10;0.10;;;;;;;27.22;35.43;96558.66;5029811;28;20165;-39
2021/10/04 00:10:24;;;;;;;0.20;0.20;;;;;;;27.21;35.29;96563.09;5029106;28;20488;-34
2021/10/04 00:12:49;;;;;;;0.10;0.10;;;;;;;27.21;35.34;96570.97;5028775;28;20032;-36
2021/10/04 00:15:16;;;;;;;0.20;0.20;;;;;;;27.21;35.36;96564.84;5023137;28;20029;-37
2021/10/04 00:17:42;;;;;;;0.20;0.20;;;;;;;27.21;35.40;96551.69;5030388;28;20024;-29
2021/10/04 00:20:08;;;;;;;0.20;0.20;;;;;;;27.21;35.39;96556.97;5026095;28;20091;-33
2021/10/04 00:22:34;;;;;;;0.10;0.10;;;;;;;27.21;35.39;96559.59;5030879;28;20029;-35
2021/10/04 00:25:00;;;;;;;0.20;0.20;;;;;;;27.20;35.29;96557.91;5026019;28;20031;-35
2021/10/04 00:27:25;;;;;;;0.20;0.20;;;;;;;27.20;35.42;96568.44;5028306;28;20033;-34
2021/10/04 00:29:51;;;;;;;0.05;0.05;;;;;;;27.19;35.43;96559.69;5001397;28;20025;-38
2021/10/04 00:32:17;;;;;;;0.15;0.15;;;;;;;27.20;35.39;96558.78;5024695;28;20041;-31
2021/10/04 00:34:42;;;;;;;0.20;0.20;;;;;;;27.20;35.38;96555.28;5012478;28;20019;-32
2021/10/04 00:37:08;;;;;;;0.25;0.25;;;;;;;27.18;35.40;96555.38;5029789;28;20037;-35
2021/10/04 00:39:35;;;;;;;0.10;0.10;;;;;;;27.20;35.33;96568.44;5012288;28;20025;-37
2021/10/04 00:42:00;;;;;;;0.17;0.17;;;;;;;27.19;35.32;96572.84;5028178;28;20042;-34
2021/10/04 00:44:26;;;;;;;0.13;0.13;;;;;;;27.19;35.31;96577.28;5026734;28;21166;-36
2021/10/04 00:46:51;;;;;;;0.30;0.13;;;;;;;27.19;35.41;96578.09;5033694;28;20280;-34
2021/10/04 00:49:17;;;;;;;0.10;0.10;;;;;;;27.18;35.41;96581.69;5027608;28;20041;-31
2021/10/04 00:51:42;;;;;;;0.10;0.10;;;;;;;27.19;35.33;96577.28;5023886;28;20017;-36
2021/10/04 00:54:07;;;;;;;0.35;0.28;;;;;;;27.18;35.41;96575.56;5026619;28;20067;-34
2021/10/04 00:56:33;;;;;;;0.10;0.10;;;;;;;27.18;35.32;96571.16;5016411;28;20032;-35
2021/10/04 00:58:58;;;;;;;0.30;0.30;;;;;;;27.17;35.45;96551.06;5028929;28;20025;-32
2021/10/04 01:01:28;;;;;;;0.10;0.10;;;;;;;27.18;35.29;96549.25;5017037;28;20032;-38
2021/10/04 01:03:57;;;;;;;0.20;0.20;;;;;;;27.17;35.46;96563.34;5027076;28;20040;-33
2021/10/04 01:06:23;;;;;;;0.20;0.20;;;;;;;27.17;35.42;96563.34;5026538;28;20024;-33
2021/10/04 01:08:48;;;;;;;0.15;0.15;;;;;;;27.18;35.23;96567.66;5006432;28;20956;-33
2021/10/04 01:11:14;;;;;;;0.30;0.20;;;;;;;27.19;35.40;96564.13;5024916;28;20056;-36
2021/10/04 01:13:39;;;;;;;0.17;0.17;;;;;;;27.18;35.48;96570.28;5030428;28;20024;-31
2021/10/04 01:16:05;;;;;;;0.28;0.25;;;;;;;27.18;35.40;96571.16;5006834;28;20026;-34
2021/10/04 01:18:30;;;;;;;0.10;0.10;;;;;;;27.19;35.29;96566.75;5027193;28;20478;-35
2021/10/04 01:20:56;;;;;;;0.08;0.08;;;;;;;27.18;35.29;96559.78;5030945;28;20021;-37
2021/10/04 01:23:21;;;;;;;0.20;0.20;;;;;;;27.18;35.30;96568.53;5028687;28;20126;-35
2021/10/04 01:25:46;;;;;;;0.20;0.20;;;;;;;27.18;35.32;96565.88;5031370;28;20369;-33
2021/10/04 01:28:12;;;;;;;0.20;0.20;;;;;;;27.18;35.38;96572.94;5030453;28;20055;-38
2021/10/04 01:30:37;;;;;;;0.10;0.10;;;;;;;27.17;35.25;96573.88;5027137;28;20261;-35
2021/10/04 01:33:02;;;;;;;0.10;0.10;;;;;;;27.17;35.41;96579.13;5014011;28;20036;-34
2021/10/04 01:35:28;;;;;;;0.20;0.20;;;;;;;27.17;35.25;96580.00;5031744;28;20036;-36
2021/10/04 01:37:53;;;;;;;0.10;0.10;;;;;;;27.17;35.30;96579.13;5029630;28;20033;-34
2021/10/04 01:40:19;;;;;;;0.15;0.15;;;;;;;27.17;35.25;96581.75;5029212;28;20021;-37
2021/10/04 01:42:45;;;;;;;0.20;0.20;;;;;;;27.17;35.29;96574.72;5031792;28;20106;-34
2021/10/04 01:45:16;;;;;;;0.10;0.10;;;;;;;27.16;35.44;96577.44;5030973;28;20511;-32
2021/10/04 01:47:41;;;;;;;0.13;0.13;;;;;;;27.17;35.44;96585.25;5030608;28;20044;-38
2021/10/04 01:50:07;;;;;;;0.10;0.10;;;;;;;27.17;35.37;96594.91;5015670;28;20040;-36
2021/10/04 01:52:33;;;;;;;0.20;0.20;;;;;;;27.16;35.41;96598.50;5031520;28;20029;-36
2021/10/04 01:54:58;;;;;;;0.25;0.10;;;;;;;27.17;35.09;96600.19;5032820;28;20710;-36
2021/10/04 01:57:24;;;;;;;0.10;0.10;;;;;;;27.16;35.38;96607.25;5003611;28;20039;-33
2021/10/04 01:59:49;;;;;;;0.20;0.20;;;;;;;27.16;35.32;96609.88;5027173;28;20526;-34
2021/10/04 02:02:14;;;;;;;0.17;0.17;;;;;;;27.16;35.44;96611.66;5011937;28;20048;-36
2021/10/04 02:04:40;;;;;;;0.20;0.10;;;;;;;27.12;35.54;96609.19;5031169;28;20031;-35
2021/10/04 02:07:05;;;;;;;0.10;0.10;;;;;;;27.16;35.32;96622.16;5015814;28;20037;-32
2021/10/04 02:09:31;;;;;;;0.30;0.20;;;;;;;27.15;35.30;96618.69;5027368;28;20029;-31
2021/10/04 02:11:56;;;;;;;0.10;0.10;;;;;;;27.16;35.35;96619.53;4998392;28;20338;-35
2021/10/04 02:14:21;;;;;;;0.10;0.10;;;;;;;27.15;35.33;96623.94;5033784;28;20028;-33
2021/10/04 02:16:47;;;;;;;0.20;0.20;;;;;;;27.14;35.46;96619.63;5025951;28;20045;-33
2021/10/04 02:19:13;;;;;;;0.03;0.03;;;;;;;27.15;35.36;96623.94;5011931;28;20101;-35
2021/10/04 02:21:39;;;;;;;0.20;0.20;;;;;;;27.15;35.37;96617.84;5028440;28;20021;-37
2021/10/04 02:24:05;;;;;;;0.10;0.10;;;;;;;27.14;35.33;96611.75;5031042;28;20711;-38
2021/10/04 02:26:30;;;;;;;0.10;0.10;;;;;;;27.14;35.14;96622.25;5026606;28;20025;-32
2021/10/04 02:28:55;;;;;;;0.20;0.20;;;;;;;27.13;35.46;96607.44;5030534;28;20443;-33
2021/10/04 02:31:21;;;;;;;0.10;0.10;;;;;;;27.14;35.36;96595.97;5025774;28;20028;-32
2021/10/04 02:33:46;;;;;;;0.10;0.10;;;;;;;27.13;35.33;96597.75;5030124;28;20021;-38
2021/10/04 02:36:12;;;;;;;0.22;0.13;;;;;;;27.12;35.38;96609.19;5026157;28;20090;-36
2021/10/04 02:38:37;;;;;;;0.10;0.10;;;;;;;27.12;35.37;96614.47;5028781;28;20029;-34
2021/10/04 02:41:03;;;;;;;0.00;0.00;;;;;;;27.12;35.28;96614.47;5029864;28;20032;-35
2021/10/04 02:43:28;;;;;;;0.10;0.10;;;;;;;27.12;35.28;96608.38;5030326;28;20033;-30
2021/10/04 02:45:54;;;;;;;0.10;0.10;;;;;;;27.13;35.39;96615.31;5031342;28;20829;-33
2021/10/04 02:48:19;;;;;;;0.10;0.10;;;;;;;27.12;35.39;96619.72;5032554;28;20487;-37
2021/10/04 02:50:45;;;;;;;0.50;0.08;;;;;;;27.12;35.41;96603.94;5031897;28;20993;-35
2021/10/04 02:53:10;;;;;;;0.20;0.20;;;;;;;27.12;35.41;96582.91;5029938;28;20495;-32
2021/10/04 02:55:36;;;;;;;0.10;0.10;;;;;;;27.12;35.28;96566.28;5014103;28;20074;-30
2021/10/04 02:58:02;;;;;;;0.20;0.20;;;;;;;27.12;35.33;96582.91;5029905;28;20502;-33
2021/10/04 03:00:27;;;;;;;0.10;0.10;;;;;;;27.13;35.25;96584.59;5026133;28;20086;-39
2021/10/04 03:02:52;;;;;;;0.13;0.13;;;;;;;27.12;35.37;96596.03;5010405;28;20026;-37
2021/10/04 03:05:18;;;;;;;0.10;0.10;;;;;;;27.13;35.29;96604.78;5017055;28;20025;-33
2021/10/04 03:07:43;;;;;;;0.10;0.10;;;;;;;27.13;35.28;96599.53;5028453;28;20046;-36
2021/10/04 03:10:09;;;;;;;0.10;0.10;;;;;;;27.09;35.49;96592.78;5027651;28;20029;-33
2021/10/04 03:12:34;;;;;;;0.15;0.15;;;;;;;27.11;35.42;96601.41;5015279;28;20068;-33
2021/10/04 03:15:00;;;;;;;0.28;0.10;;;;;;;27.12;35.42;96605.75;5025006;28;20025;-33
2021/10/04 03:17:26;;;;;;;0.10;0.10;;;;;;;27.13;35.33;96612.69;5011257;28;20115;-36
2021/10/04 03:19:51;;;;;;;0.00;0.00;;;;;;;27.12;35.27;96597.84;5030132;28;20487;-32
2021/10/04 03:22:16;;;;;;;0.10;0.10;;;;;;;27.11;35.29;96601.41;5015752;28;20025;-33
2021/10/04 03:24:42;;;;;;;0.20;0.20;;;;;;;27.11;35.38;96596.13;5029159;28;20024;-40
2021/10/04 03:27:07;;;;;;;0.10;0.10;;;;;;;27.11;35.36;96607.50;5027410;28;20060;-36
2021/10/04 03:29:33;;;;;;;1.02;0.20;;;;;;;27.12;35.19;96613.63;5028322;28;20029;-32
2021/10/04 03:31:58;;;;;;;0.10;0.10;;;;;;;27.11;35.27;96625.94;5011615;28;20060;-33
2021/10/04 03:34:24;;;;;;;0.60;0.13;;;;;;;27.12;35.40;96613.63;5030357;28;20040;-30
2021/10/04 03:36:50;;;;;;;0.10;0.10;;;;;;;27.11;35.33;96612.78;5029142;28;20144;-33
2021/10/04 03:39:15;;;;;;;0.15;0.15;;;;;;;27.12;35.37;96617.09;5030835;28;20073;-31
2021/10/04 03:41:41;;;;;;;0.20;0.17;;;;;;;27.11;35.25;96628.56;5026014;28;20525;-31
2021/10/04 03:44:06;;;;;;;0.20;0.20;;;;;;;27.10;35.39;96626.88;5026282;28;20469;-38
2021/10/04 03:46:32;;;;;;;0.17;0.10;;;;;;;27.11;35.30;96628.56;5010215;28;20051;-40
2021/10/04 03:48:57;;;;;;;0.50;0.10;;;;;;;27.09;35.27;96625.19;5028665;28;20091;-36
2021/10/04 03:51:23;;;;;;;0.08;0.08;;;;;;;27.10;35.36;96632.13;5026087;28;20099;-30
2021/10/04 03:53:48;;;;;;;0.10;0.10;;;;;;;27.11;35.18;96632.97;5028767;28;20020;-30
2021/10/04 03:56:13;;;;;;;0.10;0.10;;;;;;;27.10;35.27;96632.13;5011693;28;20041;-33
2021/10/04 03:58:39;;;;;;;0.17;0.17;;;;;;;27.10;35.24;96636.53;5025417;28;20036;-29
2021/10/04 04:01:04;;;;;;;0.10;0.10;;;;;;;27.11;35.27;96632.97;5009340;28;20033;-32
2021/10/04 04:03:30;;;;;;;0.10;0.10;;;;;;;27.10;35.34;96626.88;5030097;28;20017;-33
2021/10/04 04:05:55;;;;;;;0.10;0.10;;;;;;;27.10;35.30;96626.88;5010998;28;20117;-36
2021/10/04 04:08:21;;;;;;;0.15;0.15;;;;;;;27.11;35.28;96638.22;5026015;28;20040;-34
2021/10/04 04:10:46;;;;;;;0.10;0.10;;;;;;;27.10;35.27;96629.50;5031667;28;20025;-35
2021/10/04 04:13:12;;;;;;;0.20;0.20;;;;;;;27.10;35.24;96642.66;5029614;28;20044;-35
2021/10/04 04:15:37;;;;;;;0.10;0.10;;;;;;;27.09;35.49;96654.13;5026423;28;20087;-30
2021/10/04 04:18:03;;;;;;;0.10;0.10;;;;;;;27.09;35.18;96651.50;5015005;28;20029;-35
2021/10/04 04:20:28;;;;;;;0.30;0.20;;;;;;;27.10;35.26;96645.28;5027446;28;20028;-31
2021/10/04 04:22:54;;;;;;;0.10;0.10;;;;;;;27.09;35.33;96640.97;5027344;28;20033;-32
2021/10/04 04:25:19;;;;;;;0.10;0.10;;;;;;;27.09;35.31;96638.34;5010020;28;20052;-37
2021/10/04 04:27:44;;;;;;;0.30;0.20;;;;;;;27.09;35.25;96640.97;5016817;28;20039;-35
2021/10/04 04:30:11;;;;;;;0.10;0.10;;;;;;;27.08;35.21;96644.50;5027361;28;20584;-36
2021/10/04 04:32:37;;;;;;;0.10;0.10;;;;;;;27.09;35.28;96642.75;5027401;28;21096;-31
2021/10/04 04:35:05;;;;;;;0.10;0.10;;;;;;;27.09;35.21;96640.13;5025060;28;20037;-32
2021/10/04 04:37:35;;;;;;;0.10;0.10;;;;;;;27.08;35.27;96636.63;5027105;28;20024;-34
2021/10/04 04:40:00;;;;;;;0.10;0.10;;;;;;;27.08;35.31;96634.00;5026770;28;20323;-31
2021/10/04 04:42:26;;;;;;;0.40;0.20;;;;;;;27.09;35.36;96648.00;5010199;28;20033;-35
2021/10/04 04:44:52;;;;;;;0.13;0.13;;;;;;;27.08;35.28;96648.94;5027725;28;20033;-30
2021/10/04 04:47:17;;;;;;;0.20;0.20;;;;;;;27.06;35.31;96641.16;5027018;28;20033;-34
2021/10/04 04:49:43;;;;;;;0.20;0.20;;;;;;;27.08;35.27;96656.84;5029342;28;20033;-34
2021/10/04 04:52:08;;;;;;;0.30;0.20;;;;;;;27.08;35.28;96662.09;5027427;28;20039;-37
2021/10/04 04:54:34;;;;;;;0.20;0.20;;;;;;;27.07;35.35;96671.75;5031735;28;20032;-35
2021/10/04 04:57:00;;;;;;;0.15;0.15;;;;;;;27.07;35.25;96674.38;5030785;28;20025;-35
2021/10/04 04:59:26;;;;;;;0.20;0.20;;;;;;;27.07;35.32;96684.91;5029447;28;20017;-34
2021/10/04 05:01:52;;;;;;;0.20;0.20;;;;;;;27.07;35.29;96684.91;5030098;28;20170;-40
2021/10/04 05:04:17;;;;;;;0.20;0.20;;;;;;;27.07;35.32;96684.91;5029593;28;20021;-33
2021/10/04 05:06:42;;;;;;;0.35;0.25;;;;;;;27.07;35.26;96671.75;5030852;28;20402;-34
2021/10/04 05:09:08;;;;;;;0.13;0.13;;;;;;;27.06;35.34;96672.72;5013233;28;20040;-36
2021/10/04 05:11:34;;;;;;;0.15;0.15;;;;;;;27.06;35.27;96666.59;5034129;28;20072;-31
2021/10/04 05:13:59;;;;;;;0.25;0.15;;;;;;;27.06;35.34;96683.22;5016408;28;20701;-33
2021/10/04 05:16:24;;;;;;;0.22;0.10;;;;;;;27.06;35.38;96691.13;5024900;28;20030;-34
2021/10/04 05:18:50;;;;;;;0.20;0.20;;;;;;;27.06;35.28;96706.91;5031571;28;20102;-37
2021/10/04 05:21:15;;;;;;;0.20;0.20;;;;;;;27.07;35.34;96705.09;5028536;28;20025;-31
2021/10/04 05:23:40;;;;;;;0.17;0.17;;;;;;;27.06;35.31;96709.53;5029269;28;20041;-33
2021/10/04 05:26:06;;;;;;;0.20;0.20;;;;;;;27.07;35.30;96711.22;5017031;28;20025;-33
2021/10/04 05:28:31;;;;;;;0.20;0.20;;;;;;;27.07;35.28;96715.63;5031333;28;20031;-35
2021/10/04 05:30:57;;;;;;;0.43;0.20;;;;;;;27.06;35.33;96730.56;5015437;28;20521;-37
2021/10/04 05:33:22;;;;;;;0.20;0.20;;;;;;;27.06;35.35;96730.56;5026762;28;20075;-36
2021/10/04 05:35:48;;;;;;;0.20;0.20;;;;;;;27.07;35.35;96736.66;5013598;28;20877;-34
2021/10/04 05:38:13;;;;;;;0.10;0.10;;;;;;;27.07;35.26;96741.91;5027587;28;20032;-38
2021/10/04 05:40:39;;;;;;;0.10;0.10;;;;;;;27.06;35.30;96737.59;5030913;28;20037;-35
2021/10/04 05:43:04;;;;;;;0.20;0.20;;;;;;;27.07;35.31;96747.19;5013595;28;20036;-30
2021/10/04 05:45:29;;;;;;;0.43;0.20;;;;;;;27.06;35.28;96741.09;5030470;28;20025;-36
2021/10/04 05:47:55;;;;;;;0.10;0.10;;;;;;;27.06;35.31;96741.09;5022456;28;20498;-37
2021/10/04 05:50:20;;;;;;;0.20;0.20;;;;;;;27.05;35.40;96739.41;5029366;28;20037;-36
2021/10/04 05:52:46;;;;;;;0.20;0.20;;;;;;;27.05;35.28;96739.41;5012441;28;21017;-34
2021/10/04 05:55:11;;;;;;;0.10;0.10;;;;;;;27.05;35.35;96730.66;5029549;28;20079;-35
2021/10/04 05:57:37;;;;;;;0.10;0.10;;;;;;;27.04;35.31;96727.16;5029860;28;20097;-36
2021/10/04 06:00:06;;;;;;;0.20;0.20;;;;;;;27.04;35.34;96729.81;5032619;28;20035;-30
2021/10/04 06:02:31;;;;;;;0.10;0.10;;;;;;;27.04;35.40;96727.16;5029123;28;20029;-31
2021/10/04 06:04:57;;;;;;;0.13;0.13;;;;;;;27.04;35.28;96715.81;5030424;28;20595;-33
2021/10/04 06:07:22;;;;;;;0.10;0.10;;;;;;;27.05;35.28;96723.63;5013505;28;20037;-38
2021/10/04 06:09:48;;;;;;;0.10;0.10;;;;;;;27.05;35.36;96733.28;5030356;28;20024;-34
2021/10/04 06:12:13;;;;;;;0.20;0.20;;;;;;;27.04;35.32;96728.97;5003920;28;20020;-32
2021/10/04 06:14:38;;;;;;;0.20;0.20;;;;;;;27.03;35.30;96728.13;5029267;28;20021;-34
2021/10/04 06:17:04;;;;;;;0.20;0.20;;;;;;;27.03;35.31;96735.19;5030248;28;20356;-34
2021/10/04 06:19:29;;;;;;;0.13;0.10;;;;;;;27.03;35.23;96741.25;5031124;28;20032;-35
2021/10/04 06:21:55;;;;;;;0.20;0.20;;;;;;;27.03;35.25;96741.25;5012138;28;20044;-31
2021/10/04 06:24:20;;;;;;;0.22;0.20;;;;;;;27.03;35.32;96746.53;5027223;28;20021;-30
2021/10/04 06:26:45;;;;;;;0.20;0.20;;;;;;;27.03;35.33;96741.25;5017889;28;20029;-34
2021/10/04 06:29:12;;;;;;;0.25;0.25;;;;;;;27.02;35.21;96744.84;5030757;28;20033;-31
2021/10/04 06:31:37;;;;;;;0.10;0.10;;;;;;;27.02;35.48;96739.56;5028302;28;20064;-34
2021/10/04 06:34:02;;;;;;;0.10;0.10;;;;;;;27.02;35.35;96750.09;5030805;28;20029;-35
2021/10/04 06:36:28;;;;;;;0.32;0.20;;;;;;;27.03;35.44;96754.41;5032169;28;20036;-34
2021/10/04 06:38:53;;;;;;;0.30;0.10;;;;;;;27.02;35.40;96760.63;5030748;28;20028;-29
2021/10/04 06:41:19;;;;;;;0.20;0.08;;;;;;;27.02;35.38;96771.13;5026745;28;20029;-37
2021/10/04 06:43:44;;;;;;;0.17;0.17;;;;;;;27.01;35.22;96774.72;5028606;28;20025;-35
2021/10/04 06:46:09;;;;;;;0.10;0.10;;;;;;;27.02;35.37;96781.66;5026423;28;20575;-34
2021/10/04 06:48:35;;;;;;;0.15;0.15;;;;;;;27.02;35.33;96789.53;5011682;28;20032;-36
2021/10/04 06:51:01;;;;;;;0.20;0.20;;;;;;;27.01;35.29;96795.75;5029460;28;20029;-35
2021/10/04 06:53:26;;;;;;;0.15;0.15;;;;;;;27.02;35.37;96792.19;5029674;28;20032;-30
2021/10/04 06:55:52;;;;;;;0.10;0.10;;;;;;;27.01;35.35;96798.38;5029652;28;20547;-36
2021/10/04 06:58:17;;;;;;;0.10;0.10;;;;;;;27.01;35.33;96801.00;4995448;28;20484;-37
2021/10/04 07:00:42;;;;;;;0.10;0.10;;;;;;;27.01;35.31;96806.28;5031554;28;20550;-39
2021/10/04 07:03:08;;;;;;;0.10;0.10;;;;;;;27.01;35.31;96816.78;5029711;28;20033;-36
2021/10/04 07:05:33;;;;;;;0.10;0.10;;;;;;;27.00;35.24;96820.31;5030083;28;20550;-35
2021/10/04 07:07:59;;;;;;;0.20;0.20;;;;;;;27.01;35.33;96829.94;5012822;28;20033;-35
2021/10/04 07:10:24;;;;;;;0.10;0.10;;;;;;;27.01;35.39;96824.69;5028019;28;20061;-32
2021/10/04 07:12:50;;;;;;;0.10;0.10;;;;;;;27.01;35.29;96829.94;5031462;28;20024;-37
2021/10/04 07:15:15;;;;;;;0.10;0.10;;;;;;;27.01;35.38;96832.56;5026827;28;20039;-36
2021/10/04 07:17:41;;;;;;;0.13;0.10;;;;;;;26.99;35.29;96834.44;5030001;28;20032;-33
2021/10/04 07:20:06;;;;;;;0.20;0.20;;;;;;;27.00;35.35;96841.38;5028712;28;20028;-30
2021/10/04 07:22:32;;;;;;;0.35;0.10;;;;;;;26.99;35.37;96839.69;5026832;28;20032;-33
2021/10/04 07:24:57;;;;;;;0.03;0.03;;;;;;;26.99;35.43;96839.69;5027980;28;20032;-35
2021/10/04 07:27:22;;;;;;;0.00;0.00;;;;;;;26.99;35.29;96842.31;5030425;28;20036;-35
2021/10/04 07:29:48;;;;;;;0.20;0.20;;;;;;;26.99;35.44;96834.44;5032632;28;20025;-34
2021/10/04 07:32:13;;;;;;;0.20;0.20;;;;;;;26.99;35.39;96834.44;5028619;28;20052;-34
2021/10/04 07:34:39;;;;;;;0.20;0.20;;;;;;;27.00;35.35;96846.63;5026023;28;20029;-32
2021/10/04 07:37:04;;;;;;;0.73;0.10;;;;;;;27.00;35.47;96854.53;5028556;28;20114;-32
2021/10/04 07:39:30;;;;;;;0.10;0.10;;;;;;;27.00;35.46;96859.78;5027408;28;20025;-28
2021/10/04 07:41:58;;;;;;;0.40;0.25;;;;;;;27.00;35.43;96859.78;5026590;28;20690;-33
2021/10/04 07:44:24;;;;;;;0.10;0.10;;;;;;;26.99;35.46;96856.31;5028772;28;20032;-35
2021/10/04 07:46:50;;;;;;;0.20;0.20;;;;;;;27.00;35.45;96862.41;5025567;28;20024;-36
2021/10/04 07:49:16;;;;;;;0.10;0.10;;;;;;;27.00;35.39;96878.19;5029654;28;20052;-35
2021/10/04 07:51:41;;;;;;;0.10;0.10;;;;;;;27.00;35.32;96883.44;5028345;28;20040;-31
2021/10/04 07:54:07;;;;;;;0.20;0.20;;;;;;;27.00;35.37;96888.72;5026118;28;20032;-33
2021/10/04 07:56:32;;;;;;;0.13;0.13;;;;;;;27.00;35.47;96888.72;5029485;28;20048;-36
2021/10/04 07:58:57;;;;;;;0.10;0.10;;;;;;;27.01;35.44;96887.81;5027673;28;20059;-34
2021/10/04 08:01:23;;;;;;;0.10;0.10;;;;;;;27.00;35.48;96879.03;5026880;28;20025;-37
2021/10/04 08:03:48;;;;;;;0.17;0.10;;;;;;;27.00;35.39;96880.81;5033324;28;20082;-29
2021/10/04 08:06:14;;;;;;;0.10;0.10;;;;;;;27.00;35.42;96878.19;5024944;28;20075;-34
2021/10/04 08:08:39;;;;;;;0.20;0.20;;;;;;;26.98;35.36;96886.19;5028146;28;20033;-36
2021/10/04 08:11:05;;;;;;;0.10;0.10;;;;;;;27.00;35.42;96893.97;5026059;28;20506;-33
2021/10/04 08:13:30;;;;;;;0.10;0.10;;;;;;;26.98;35.41;96890.59;5030708;28;20032;-33
2021/10/04 08:15:56;;;;;;;0.10;0.10;;;;;;;26.98;35.42;96890.59;5043802;28;20026;-31
2021/10/04 08:18:21;;;;;;;0.10;0.10;;;;;;;26.97;35.59;96895.00;5028814;28;20548;-31
2021/10/04 08:20:46;;;;;;;0.10;0.10;;;;;;;26.98;35.56;96901.97;5008460;28;20032;-36
2021/10/04 08:23:13;;;;;;;0.10;0.10;;;;;;;26.97;35.34;96909.94;5028707;28;20573;-34
2021/10/04 08:25:39;;;;;;;0.20;0.20;;;;;;;26.98;35.37;96916.88;5012029;28;20108;-33
2021/10/04 08:28:04;;;;;;;0.20;0.20;;;;;;;26.97;35.49;96917.84;5025346;28;20025;-29
2021/10/04 08:30:31;;;;;;;0.75;0.20;;;;;;;26.98;35.47;96904.59;5032220;28;20569;-32
2021/10/04 08:32:56;;;;;;;0.20;0.20;;;;;;;26.97;35.39;96907.31;5034433;28;20029;-36
2021/10/04 08:35:22;;;;;;;0.10;0.10;;;;;;;26.97;35.41;96910.78;5032846;28;20030;-33
2021/10/04 08:37:48;;;;;;;0.10;0.10;;;;;;;26.95;35.55;96917.91;5029361;28;20119;-31
2021/10/04 08:40:15;;;;;;;0.10;0.10;;;;;;;26.97;35.61;96920.47;5011631;28;20017;-33
2021/10/04 08:42:41;;;;;;;0.13;0.10;;;;;;;26.96;35.45;96930.13;5022665;28;20120;-30
2021/10/04 08:45:07;;;;;;;0.25;0.20;;;;;;;26.96;35.53;96938.00;5033890;28;20060;-35
2021/10/04 08:47:37;;;;;;;0.10;0.10;;;;;;;26.97;35.48;96944.13;5029985;28;20107;-33
2021/10/04 08:50:03;;;;;;;0.10;0.10;;;;;;;26.96;35.35;96939.81;5031227;28;20575;-35
2021/10/04 08:52:29;;;;;;;0.17;0.10;;;;;;;26.97;35.51;96930.97;5033931;28;20040;-34
2021/10/04 08:54:54;;;;;;;0.28;0.10;;;;;;;26.96;35.45;96929.28;5036950;28;20695;-32
2021/10/04 08:57:19;;;;;;;0.10;0.10;;;;;;;26.96;35.40;96924.03;5031966;28;20487;-32
2021/10/04 08:59:45;;;;;;;0.30;0.30;;;;;;;26.97;35.61;96917.84;5016266;28;20033;-32
2021/10/04 09:02:24;;;;;;;0.20;0.17;;;;;;;26.96;35.45;96927.50;5029651;28;20030;-33
2021/10/04 09:05:05;;;;;;;0.10;0.10;;;;;;;26.97;35.48;96925.72;5030957;28;20558;-32
2021/10/04 09:07:56;;;;;;;0.17;0.17;;;;;;;26.96;35.47;96926.66;5035447;28;20046;-36
2021/10/04 09:10:24;;;;;;;0.20;0.20;;;;;;;26.95;35.57;96924.94;5031490;28;20048;-34
2021/10/04 09:12:57;;;;;;;0.10;0.10;;;;;;;26.95;35.51;96927.56;5017096;28;20454;-34
2021/10/04 09:15:48;;;;;;;0.28;0.22;;;;;;;26.95;35.62;96927.56;5032583;28;20481;-36
2021/10/04 09:18:24;;;;;;;0.10;0.10;;;;;;;26.95;35.63;96930.19;5029465;28;20082;-37
2021/10/04 09:20:50;;;;;;;0.20;0.20;;;;;;;26.95;35.57;96928.44;5032876;28;20051;-30
2021/10/04 09:23:45;;;;;;;0.10;0.10;;;;;;;26.91;35.60;96916.34;5028611;28;20202;-35
2021/10/04 09:26:26;;;;;;;0.08;0.08;;;;;;;26.95;35.60;96927.56;5032751;28;20442;-32
2021/10/04 09:29:08;;;;;;;0.10;0.10;;;;;;;26.94;35.55;96931.13;5028946;28;20433;-36
2021/10/04 09:31:41;;;;;;;0.20;0.20;;;;;;;26.94;35.64;96937.25;5027922;28;20021;-32
2021/10/04 09:34:19;;;;;;;0.10;0.10;;;;;;;26.94;35.61;96937.25;5032544;28;20017;-34
2021/10/04 09:36:58;;;;;;;0.17;0.10;;;;;;;26.95;35.48;96943.34;5032405;28;20029;-34
2021/10/04 09:39:28;;;;;;;0.20;0.20;;;;;;;26.94;35.56;96949.53;5030166;28;20032;-34
2021/10/04 09:42:12;;;;;;;0.00;0.00;;;;;;;26.94;35.67;96954.78;5033192;28;20115;-33
2021/10/04 09:44:42;;;;;;;0.10;0.10;;;;;;;26.94;35.65;96936.38;5028533;28;20064;-37
2021/10/04 09:47:11;;;;;;;0.17;0.10;;;;;;;26.95;35.61;96922.31;5027915;28;20060;-34
2021/10/04 09:49:52;;;;;;;0.10;0.10;;;;;;;26.94;35.63;96920.59;5031811;28;20526;-31
2021/10/04 09:52:17;;;;;;;0.10;0.10;;;;;;;26.95;35.62;96917.06;5032441;28;20028;-34
2021/10/04 09:54:47;;;;;;;0.40;0.15;;;;;;;26.94;35.51;96915.34;5029703;28;20033;-35
2021/10/04 09:57:19;;;;;;;0.10;0.05;;;;;;;26.94;35.55;96920.59;5031267;28;20466;-34
2021/10/04 09:59:44;;;;;;;0.10;0.10;;;;;;;26.95;35.55;96930.19;5031985;28;20048;-33
2021/10/04 10:02:12;;;;;;;0.10;0.10;;;;;;;26.95;35.57;96927.56;5014114;28;20112;-38
2021/10/04 10:04:39;;;;;;;0.20;0.20;;;;;;;26.95;35.65;96932.84;5031759;28;20850;-36
2021/10/04 10:07:06;;;;;;;0.08;0.08;;;;;;;26.95;35.60;96924.94;5028140;28;20489;-32
2021/10/04 10:09:36;;;;;;;0.10;0.10;;;;;;;26.95;35.54;96922.31;4995457;28;20048;-34
2021/10/04 10:12:03;;;;;;;0.10;0.10;;;;;;;26.96;35.72;96930.13;5028952;28;20031;-29
2021/10/04 10:14:43;;;;;;;0.20;0.20;;;;;;;26.95;35.59;96938.94;5013060;28;20043;-32
2021/10/04 10:17:18;;;;;;;0.10;0.10;;;;;;;26.96;35.49;96929.28;5028485;28;20037;-35
2021/10/04 10:19:43;;;;;;;0.10;0.10;;;;;;;26.96;35.63;96913.50;5021011;28;20048;-35
2021/10/04 10:22:16;;;;;;;0.10;0.10;;;;;;;26.96;35.65;96898.56;5011797;28;20028;-33
2021/10/04 10:24:42;;;;;;;0.10;0.10;;;;;;;26.96;35.60;96903.00;5031302;28;20030;-34
2021/10/04 10:27:08;;;;;;;0.28;0.10;;;;;;;26.96;35.60;96909.09;5030662;28;20025;-34
2021/10/04 10:29:35;;;;;;;0.10;0.10;;;;;;;26.96;35.70;96913.50;5024140;28;20040;-34
2021/10/04 10:32:00;;;;;;;0.20;0.10;;;;;;;26.97;35.54;96909.94;5034372;28;20458;-34
2021/10/04 10:34:32;;;;;;;0.10;0.10;;;;;;;26.96;35.63;96908.25;5029845;28;20108;-34
2021/10/04 10:37:16;;;;;;;0.10;0.10;;;;;;;26.98;35.64;96906.38;5029238;28;20816;-34
2021/10/04 10:39:51;;;;;;;0.85;0.15;;;;;;;26.98;35.66;96911.63;5031908;28;20234;-37
2021/10/04 10:42:32;;;;;;;0.10;0.10;;;;;;;26.98;35.60;96909.00;5029487;28;20744;-29
2021/10/04 10:44:58;;;;;;;0.20;0.20;;;;;;;26.98;35.68;96914.25;5030383;28;20109;-30
2021/10/04 10:47:39;;;;;;;0.32;0.10;;;;;;;26.97;35.60;96905.50;5030304;28;20032;-35
2021/10/04 10:50:11;;;;;;;0.00;0.00;;;;;;;27.00;35.56;96915.00;5031185;28;20118;-33
2021/10/04 10:52:38;;;;;;;0.00;0.00;;;;;;;26.98;35.62;96917.75;5031064;28;20467;-28
2021/10/04 10:55:33;;;;;;;0.30;0.20;;;;;;;26.99;35.70;96915.94;5031845;28;20722;-35
2021/10/04 10:58:06;;;;;;;0.10;0.10;;;;;;;27.00;35.73;96917.63;5028544;28;20594;-34
2021/10/04 11:00:34;;;;;;;0.20;0.20;;;;;;;26.98;35.78;96912.50;5032894;28;20017;-33
2021/10/04 11:03:00;;;;;;;0.17;0.17;;;;;;;26.98;35.60;96911.63;5029446;28;20025;-33
2021/10/04 11:05:37;;;;;;;0.10;0.10;;;;;;;26.99;35.60;96902.81;5030508;28;20124;-34
2021/10/04 11:08:13;;;;;;;0.10;0.10;;;;;;;26.99;35.66;96908.06;5030275;28;20590;-35
2021/10/04 11:10:59;;;;;;;0.13;0.10;;;;;;;27.00;35.66;96909.75;5029577;28;20052;-33
2021/10/04 11:13:27;;;;;;;0.10;0.10;;;;;;;27.00;35.79;96909.75;5017314;28;20029;-32
2021/10/04 11:15:54;;;;;;;0.43;0.10;;;;;;;27.00;35.60;96901.84;5030120;28;20033;-34
2021/10/04 11:18:20;;;;;;;0.10;0.05;;;;;;;27.01;35.72;96906.22;5028839;28;20025;-34
2021/10/04 11:20:46;;;;;;;0.00;0.00;;;;;;;26.97;35.67;96886.28;5027414;28;20044;-35
2021/10/04 11:23:18;;;;;;;0.13;0.13;;;;;;;27.01;35.72;96885.16;5029684;28;20043;-34
2021/10/04 11:25:44;;;;;;;0.05;0.05;;;;;;;27.02;35.66;96886.00;5035919;28;20167;-36
2021/10/04 11:28:10;;;;;;;0.10;0.10;;;;;;;27.02;35.66;96891.25;5027703;28;20028;-32
2021/10/04 11:30:51;;;;;;;0.10;0.10;;;;;;;27.02;35.70;96892.13;5029959;28;20123;-37
2021/10/04 11:33:16;;;;;;;0.10;0.10;;;;;;;27.02;35.60;96886.00;5027344;28;20590;-32